Time;durP1;ratioP1;P1;durP2;ratioP2;P2;SDS_P1;SDS_P2;PMS_P1;PMS_P2;Temp;Humidity;BMP_temperature;BMP_pressure;BME280_temperature;BME280_humidity;BME280_pressure;Samples;Min_cycle;Max_cycle;Signal;HPM_P1;HPM_P2
2022/12/12 00:07:55;;;;;;;19.40;9.60;;;;;;;0.61;93.35;98977.20;662128;1306;138860;-83
2022/12/12 00:22:58;;;;;;;23.40;11.70;;;;;;;0.65;93.96;98971.59;660548;1299;138839;-82
2022/12/12 00:38:02;;;;;;;20.30;9.90;;;;;;;0.70;94.40;98958.34;660764;1312;139018;-82
2022/12/12 00:53:06;;;;;;;21.60;10.20;;;;;;;0.74;95.12;98943.95;660615;1312;138379;-84
2022/12/12 01:08:09;;;;;;;17.70;7.90;;;;;;;0.87;95.09;98938.76;660611;1313;138389;-84
2022/12/12 01:23:14;;;;;;;15.90;8.50;;;;;;;0.98;95.16;98924.77;660569;1312;138889;-84
2022/12/12 01:38:18;;;;;;;12.60;7.80;;;;;;;1.13;95.83;98909.41;660793;1304;138156;-84
2022/12/12 01:53:24;;;;;;;11.40;5.60;;;;;;;1.30;96.31;98901.54;660736;1313;138652;-84
2022/12/12 02:08:29;;;;;;;11.30;5.50;;;;;;;1.42;96.73;98885.63;660730;1312;138007;-83
2022/12/12 02:23:55;;;;;;;9.00;4.60;;;;;;;1.56;96.84;98862.39;660678;1302;138292;-83
2022/12/12 02:39:06;;;;;;;4.80;3.40;;;;;;;1.69;97.87;98862.34;660790;1308;137869;-84
2022/12/12 02:54:16;;;;;;;13.60;5.20;;;;;;;1.78;98.29;98846.48;660855;1313;138065;-83
2022/12/12 03:09:54;;;;;;;8.80;4.80;;;;;;;1.82;98.58;98831.14;660729;1313;138013;-83
2022/12/12 03:25:07;;;;;;;8.70;5.30;;;;;;;1.93;99.01;98822.79;660578;1313;138128;-83
2022/12/12 03:40:14;;;;;;;13.10;5.90;;;;;;;2.06;99.22;98814.60;661012;1311;138000;-84
2022/12/12 03:55:28;;;;;;;7.00;4.40;;;;;;;2.15;99.84;98821.46;660606;1313;138490;-84
2022/12/12 04:26:39;;;;;;;7.00;3.90;;;;;;;2.42;100.00;98800.07;660949;1313;138327;-85
2022/12/12 04:41:45;;;;;;;10.90;5.20;;;;;;;2.53;100.00;98795.81;660523;1305;138208;-84
2022/12/12 04:56:55;;;;;;;11.70;5.20;;;;;;;2.50;100.00;98788.93;660726;1313;138715;-83
2022/12/12 05:11:58;;;;;;;8.40;4.50;;;;;;;2.44;100.00;98787.30;660281;1302;138695;-83
2022/12/12 05:27:02;;;;;;;7.40;4.50;;;;;;;2.49;100.00;98787.95;660471;1312;138139;-83
2022/12/12 05:42:05;;;;;;;12.00;6.30;;;;;;;2.47;100.00;98786.61;660421;1313;138869;-84
2022/12/12 05:57:09;;;;;;;20.40;9.60;;;;;;;2.53;100.00;98780.98;660558;1313;138374;-84
2022/12/12 06:12:13;;;;;;;17.90;9.40;;;;;;;2.43;100.00;98777.60;660338;1298;138713;-84
2022/12/12 06:27:16;;;;;;;15.60;6.40;;;;;;;2.51;100.00;98775.73;660655;1313;138365;-84
2022/12/12 06:42:20;;;;;;;14.80;7.50;;;;;;;2.50;100.00;98777.33;660410;1308;138528;-84
2022/12/12 06:57:24;;;;;;;19.20;9.00;;;;;;;2.56;100.00;98777.95;660462;1307;138534;-84
2022/12/12 07:12:27;;;;;;;23.30;9.50;;;;;;;2.59;100.00;98774.77;660413;1313;138390;-84
2022/12/12 07:27:30;;;;;;;11.80;6.30;;;;;;;2.64;100.00;98787.83;660884;1305;138461;-83
2022/12/12 07:42:34;;;;;;;10.50;6.40;;;;;;;2.75;100.00;98773.33;660571;1313;138618;-85
2022/12/12 07:57:40;;;;;;;11.50;6.50;;;;;;;2.68;100.00;98777.73;660679;1308;138493;-84
2022/12/12 08:12:44;;;;;;;22.20;14.70;;;;;;;2.68;100.00;98786.52;661887;1304;138610;-84
2022/12/12 08:27:47;;;;;;;20.60;10.40;;;;;;;2.69;100.00;98790.70;660482;1313;138619;-85
2022/12/12 08:42:51;;;;;;;16.50;9.70;;;;;;;2.73;100.00;98796.44;660378;1313;139252;-85
2022/12/12 08:57:54;;;;;;;27.70;14.30;;;;;;;2.79;99.96;98797.55;660405;1313;138482;-86
2022/12/12 09:12:57;;;;;;;38.20;17.80;;;;;;;2.87;99.96;98789.17;660391;1311;138644;-85
2022/12/12 09:28:01;;;;;;;24.80;14.40;;;;;;;3.00;100.00;98784.98;660675;1313;138422;-87
2022/12/12 09:43:05;;;;;;;33.80;15.20;;;;;;;2.97;100.00;98784.69;660493;1313;138516;-86
2022/12/12 09:58:40;;;;;;;185.50;76.40;;;;;;;2.82;100.00;98794.54;660484;1307;138640;-85
2022/12/12 10:13:52;;;;;;;12.90;7.60;;;;;;;2.76;100.00;98791.91;660736;1313;138682;-86
2022/12/12 10:29:10;;;;;;;13.70;7.80;;;;;;;2.81;100.00;98793.27;660375;1308;138334;-85
2022/12/12 10:44:42;;;;;;;14.50;8.00;;;;;;;2.73;100.00;98783.05;662107;1304;138330;-85
2022/12/12 10:59:52;;;;;;;21.40;12.40;;;;;;;2.65;100.00;98774.95;660555;1313;138786;-85
2022/12/12 11:15:05;;;;;;;20.90;12.90;;;;;;;2.68;100.00;98774.77;660734;1313;138467;-85
2022/12/12 11:30:23;;;;;;;30.30;16.60;;;;;;;2.86;100.00;98785.11;660339;1313;138483;-86
2022/12/12 11:45:27;;;;;;;40.50;24.40;;;;;;;2.89;100.00;98783.63;660846;1305;138531;-82
2022/12/12 12:00:53;;;;;;;81.10;44.10;;;;;;;2.92;100.00;98783.08;660616;1313;138731;-82
2022/12/12 12:16:19;;;;;;;42.00;18.30;;;;;;;3.04;100.00;98785.38;660391;1313;138673;-83
2022/12/12 12:31:39;;;;;;;25.00;15.60;;;;;;;3.16;100.00;98787.00;660281;1312;138637;-82
2022/12/12 12:47:10;;;;;;;28.20;15.70;;;;;;;3.27;100.00;98788.77;660675;1313;152999;-82
2022/12/12 13:02:44;;;;;;;40.60;21.40;;;;;;;3.19;100.00;98790.09;660456;1309;138617;-85
2022/12/12 13:18:09;;;;;;;61.90;30.70;;;;;;;3.21;100.00;98798.00;660845;1313;138610;-85
2022/12/12 13:33:42;;;;;;;62.60;26.90;;;;;;;3.21;100.00;98806.52;660379;1305;138741;-85
2022/12/12 13:48:51;;;;;;;18.30;7.90;;;;;;;3.17;100.00;98829.63;660431;1313;139140;-84
2022/12/12 14:03:55;;;;;;;16.90;8.20;;;;;;;3.17;100.00;98834.61;660530;1299;138336;-84
2022/12/12 14:19:20;;;;;;;21.10;11.50;;;;;;;3.23;100.00;98832.44;661902;1305;138292;-84
2022/12/12 14:34:38;;;;;;;37.90;18.50;;;;;;;3.15;100.00;98839.77;660594;1312;138577;-84
2022/12/12 14:49:41;;;;;;;29.30;13.40;;;;;;;3.20;100.00;98844.56;660595;1312;139193;-84
2022/12/12 15:04:48;;;;;;;94.70;35.20;;;;;;;3.21;100.00;98856.05;660547;1312;139336;-85
2022/12/12 15:20:02;;;;;;;25.40;12.80;;;;;;;3.28;100.00;98867.48;660818;1312;138524;-84
2022/12/12 15:35:08;;;;;;;56.60;33.50;;;;;;;3.15;100.00;98877.09;660408;1312;138374;-84
2022/12/12 15:50:16;;;;;;;127.10;42.50;;;;;;;3.08;100.00;98877.27;660767;1312;138541;-85
2022/12/12 16:05:27;;;;;;;99.00;37.20;;;;;;;3.08;100.00;98888.73;660982;1312;138701;-83
2022/12/12 16:20:32;;;;;;;31.90;12.90;;;;;;;3.13;100.00;98895.10;660812;1305;138909;-86
2022/12/12 16:35:35;;;;;;;34.90;12.40;;;;;;;3.11;100.00;98904.01;660420;1305;138433;-83
2022/12/12 16:50:39;;;;;;;102.00;34.30;;;;;;;2.87;100.00;98912.45;660571;1312;138769;-82
2022/12/12 17:05:45;;;;;;;50.50;19.70;;;;;;;2.68;99.70;98918.61;660653;1311;138784;-81
2022/12/12 17:20:49;;;;;;;96.30;31.70;;;;;;;2.45;98.09;98928.10;660651;1313;138507;-83
2022/12/12 17:36:04;;;;;;;40.90;19.10;;;;;;;2.19;96.98;98934.66;660478;1312;138451;-84
2022/12/12 17:51:08;;;;;;;94.20;33.00;;;;;;;1.98;96.30;98952.63;660706;1312;138417;-85
2022/12/12 18:06:13;;;;;;;23.50;11.10;;;;;;;2.02;97.43;98959.90;660696;1313;138466;-84
2022/12/12 18:21:21;;;;;;;52.40;21.90;;;;;;;2.31;95.90;98973.30;660710;1313;138445;-84
2022/12/12 18:36:45;;;;;;;126.40;50.10;;;;;;;2.33;95.76;98977.13;660511;1312;138482;-85
2022/12/12 18:51:48;;;;;;;33.80;14.20;;;;;;;1.99;97.13;98988.23;660649;1312;139312;-85
2022/12/12 19:06:52;;;;;;;42.30;18.00;;;;;;;1.79;96.50;99000.90;660554;1313;138433;-85
2022/12/12 19:21:55;;;;;;;49.10;23.40;;;;;;;1.61;96.41;99013.19;660572;1312;139069;-87
2022/12/12 19:37:01;;;;;;;52.70;23.80;;;;;;;1.59;96.03;99028.67;660519;1312;138641;-88
2022/12/12 19:52:04;;;;;;;36.80;18.90;;;;;;;1.62;95.39;99034.88;660747;1312;140446;-87
2022/12/12 20:07:16;;;;;;;39.00;19.20;;;;;;;1.65;94.04;99056.56;660525;1313;138413;-87
2022/12/12 20:22:19;;;;;;;19.30;8.20;;;;;;;1.62;94.14;99071.76;660582;1313;138655;-87
2022/12/12 20:37:23;;;;;;;19.60;8.90;;;;;;;1.37;92.83;99086.38;660564;1308;138064;-87
2022/12/12 20:52:26;;;;;;;18.50;7.10;;;;;;;1.28;89.93;99099.59;660631;1313;138566;-85
2022/12/12 21:07:30;;;;;;;20.60;9.30;;;;;;;1.09;85.78;99097.06;660485;1313;138150;-84
2022/12/12 21:22:35;;;;;;;10.00;5.00;;;;;;;0.98;83.82;99116.59;660659;1313;138312;-85
2022/12/12 21:37:38;;;;;;;15.10;8.00;;;;;;;0.83;81.65;99127.41;660622;1313;138232;-84
2022/12/12 21:53:32;;;;;;;8.20;4.30;;;;;;;0.68;79.60;99147.45;660368;1312;138239;-85
2022/12/12 22:08:06;;;;;;;14.10;6.90;;;;;;;0.56;77.36;99160.29;660402;1310;138111;-85
2022/12/12 22:23:27;;;;;;;14.30;6.50;;;;;;;0.57;77.31;99174.13;660500;1313;138414;-84
2022/12/12 22:38:30;;;;;;;27.60;9.80;;;;;;;0.54;78.41;99185.72;660722;1305;138203;-85
2022/12/12 22:53:40;;;;;;;31.60;10.50;;;;;;;0.53;79.05;99196.77;660382;1312;138779;-85
2022/12/12 23:08:55;;;;;;;13.50;5.70;;;;;;;0.68;77.94;99212.31;660492;1313;139305;-85
2022/12/12 23:23:59;;;;;;;62.20;21.50;;;;;;;0.81;78.45;99223.56;660427;1311;138422;-86
2022/12/12 23:39:05;;;;;;;21.10;9.00;;;;;;;0.93;77.81;99241.73;660468;1313;138613;-85
2022/12/12 23:54:15;;;;;;;9.60;5.10;;;;;;;0.93;78.08;99263.45;660320;1311;138724;-85
